Terminal Aerodrome Forecast
Issued by NWS

Home | Current Version | Previous Version | Text Only | Print | Product List | Glossary On
Versions: 1 2 3 4 5 6 7 8 9 10 11 12 13 14 15 16 17 18 19 20 21 22 23 24 25 26 27
000
FTUS43 KDMX 031135
TAFOTM
TAF
KOTM 031135Z 0312/0412 18012KT P6SM VCSH SCT035 BKN070
      TEMPO 0312/0314 -SHRA SCT015 BKN035
     FM031400 19014G21KT P6SM BKN150
     FM040100 18009KT P6SM SCT100
     FM040400 22008KT P6SM VCSH OVC040=

USA.gov is the U.S. government's official web portal to all federal, state and local government web resources and services.